Time;durP1;ratioP1;P1;durP2;ratioP2;P2;SDS_P1;SDS_P2;PMS_P1;PMS_P2;Temp;Humidity;BMP_temperature;BMP_pressure;BME280_temperature;BME280_humidity;BME280_pressure;Samples;Min_cycle;Max_cycle;Signal;HPM_P1;HPM_P2
2022/11/11 00:00:50;;;;;;;12.88;5.82;;;9.00;99.90;;;;;;5068228;28;20056;-74
2022/11/11 00:03:16;;;;;;;13.75;6.63;;;9.00;99.90;;;;;;5070728;28;20035;-74
2022/11/11 00:05:41;;;;;;;16.65;7.35;;;9.00;99.90;;;;;;5069759;28;20480;-74
2022/11/11 00:08:07;;;;;;;12.75;6.57;;;9.00;99.90;;;;;;5067276;28;20025;-75
2022/11/11 00:10:33;;;;;;;12.25;6.07;;;8.90;99.90;;;;;;5071445;28;20088;-74
2022/11/11 00:13:00;;;;;;;12.68;6.53;;;8.90;99.90;;;;;;5062788;28;20024;-74
2022/11/11 00:15:26;;;;;;;14.75;6.85;;;8.90;99.90;;;;;;5068046;28;20040;-74
2022/11/11 00:26:07;;;;;;;13.70;8.52;;;9.00;99.90;;;;;;5068153;28;20043;-74
2022/11/11 00:28:32;;;;;;;23.75;9.95;;;9.00;99.90;;;;;;5067970;28;20059;-74
2022/11/11 00:31:07;;;;;;;17.02;8.63;;;9.00;99.90;;;;;;5059039;28;20064;-75
2022/11/11 00:33:32;;;;;;;18.80;8.75;;;9.10;99.90;;;;;;5071358;28;20081;-74
2022/11/11 00:35:58;;;;;;;18.02;9.43;;;9.20;99.90;;;;;;5069428;28;20036;-74
2022/11/11 00:41:08;;;;;;;19.20;10.13;;;9.20;99.90;;;;;;5071783;28;20423;-74
2022/11/11 00:43:34;;;;;;;17.30;10.23;;;9.20;99.90;;;;;;5053442;28;20028;-75
2022/11/11 00:51:28;;;;;;;22.73;11.27;;;9.40;99.90;;;;;;5065147;28;20051;-75
2022/11/11 00:53:54;;;;;;;25.52;11.32;;;9.50;99.90;;;;;;5072587;28;20470;-74
2022/11/11 00:56:22;;;;;;;19.08;10.95;;;9.50;99.90;;;;;;5072668;28;20079;-74
2022/11/11 00:58:48;;;;;;;18.33;10.82;;;9.50;99.90;;;;;;5070324;28;20028;-74
2022/11/11 01:01:13;;;;;;;22.73;12.23;;;9.60;99.90;;;;;;5069204;28;20449;-74
2022/11/11 01:03:39;;;;;;;20.98;11.68;;;9.60;99.90;;;;;;5072670;28;20025;-75
2022/11/11 01:06:05;;;;;;;22.00;12.77;;;9.60;99.90;;;;;;5073559;28;20090;-75
2022/11/11 01:08:31;;;;;;;18.85;11.95;;;9.70;99.90;;;;;;5054927;28;20526;-74
2022/11/11 01:10:58;;;;;;;18.90;12.27;;;9.70;99.90;;;;;;5057856;28;20493;-74
2022/11/11 01:13:26;;;;;;;20.88;12.65;;;9.70;99.90;;;;;;5075331;28;20021;-74
2022/11/11 01:15:57;;;;;;;23.52;13.38;;;9.70;99.90;;;;;;5073327;28;20032;-74
2022/11/11 01:18:25;;;;;;;18.52;12.68;;;9.80;99.90;;;;;;5073847;28;20017;-74
2022/11/11 01:21:03;;;;;;;23.13;14.20;;;9.80;99.90;;;;;;5041531;28;20075;-74
2022/11/11 01:23:30;;;;;;;20.98;13.73;;;9.80;99.90;;;;;;5064148;28;20476;-74
2022/11/11 01:26:10;;;;;;;22.85;14.35;;;9.80;99.90;;;;;;5070796;28;20037;-74
2022/11/11 01:28:36;;;;;;;23.42;13.90;;;9.80;99.90;;;;;;5073493;28;20043;-74
2022/11/11 01:31:05;;;;;;;22.27;14.55;;;9.80;99.90;;;;;;5074534;28;20488;-74
2022/11/11 01:33:31;;;;;;;23.55;14.57;;;9.90;99.90;;;;;;5055790;28;20396;-75
2022/11/11 01:36:05;;;;;;;21.35;15.30;;;9.90;99.90;;;;;;5066431;28;20028;-75
2022/11/11 01:38:31;;;;;;;23.88;13.63;;;9.90;99.90;;;;;;5069175;28;20403;-74
2022/11/11 01:40:56;;;;;;;19.42;14.73;;;10.00;99.90;;;;;;5074046;28;20111;-75
2022/11/11 01:43:23;;;;;;;25.58;15.77;;;9.90;99.90;;;;;;5070338;28;20476;-74
2022/11/11 01:45:58;;;;;;;22.20;14.50;;;9.90;99.90;;;;;;5062377;28;20383;-74
2022/11/11 01:51:39;;;;;;;25.20;15.15;;;10.00;99.90;;;;;;5069443;28;20032;-74
2022/11/11 01:54:10;;;;;;;28.80;15.77;;;10.00;99.90;;;;;;5069910;28;20127;-74
2022/11/11 01:56:36;;;;;;;23.35;14.63;;;10.00;99.90;;;;;;5054925;28;20044;-75
2022/11/11 01:59:07;;;;;;;25.42;16.05;;;10.00;99.90;;;;;;5052075;28;20033;-74
2022/11/11 02:01:34;;;;;;;24.83;15.27;;;10.00;99.90;;;;;;5072926;28;20031;-75
2022/11/11 02:06:49;;;;;;;24.73;15.32;;;10.00;99.90;;;;;;5072189;28;20028;-74
2022/11/11 02:09:15;;;;;;;22.83;15.27;;;10.10;99.90;;;;;;5056206;28;20048;-74
2022/11/11 02:14:34;;;;;;;25.23;16.35;;;10.10;99.90;;;;;;5071464;28;20048;-74
2022/11/11 02:17:00;;;;;;;27.45;15.23;;;10.10;99.90;;;;;;5048655;28;20024;-74
2022/11/11 02:19:42;;;;;;;26.67;15.75;;;10.10;99.90;;;;;;5065904;28;20027;-74
2022/11/11 02:22:12;;;;;;;30.27;16.73;;;10.20;99.90;;;;;;5070029;28;20491;-74
2022/11/11 02:24:40;;;;;;;28.85;16.35;;;10.20;99.90;;;;;;5073652;28;20033;-75
2022/11/11 02:27:10;;;;;;;25.58;16.25;;;10.20;99.90;;;;;;5072837;28;20068;-75
2022/11/11 02:29:37;;;;;;;24.40;15.18;;;10.20;99.90;;;;;;5052677;28;20067;-75
2022/11/11 02:32:03;;;;;;;27.45;15.45;;;10.20;99.90;;;;;;5056136;28;20077;-74
2022/11/11 02:34:33;;;;;;;22.35;15.10;;;10.20;99.90;;;;;;5067743;28;20036;-74
2022/11/11 02:37:01;;;;;;;21.38;14.50;;;10.20;99.90;;;;;;5052076;28;20081;-74
2022/11/11 02:39:27;;;;;;;27.73;15.38;;;10.20;99.90;;;;;;5070292;28;20140;-74
2022/11/11 02:41:55;;;;;;;25.52;14.85;;;10.20;99.90;;;;;;5073178;28;20036;-74
2022/11/11 02:44:21;;;;;;;28.45;16.05;;;10.20;99.90;;;;;;5071328;28;20048;-74
2022/11/11 02:46:47;;;;;;;26.75;16.08;;;10.20;99.90;;;;;;5071513;28;20036;-74
2022/11/11 02:49:13;;;;;;;25.48;14.82;;;10.10;99.90;;;;;;5067842;28;20025;-75
2022/11/11 02:51:38;;;;;;;30.20;15.55;;;10.10;99.90;;;;;;5066707;28;20060;-74
2022/11/11 02:54:04;;;;;;;24.92;14.57;;;10.10;99.90;;;;;;5071716;28;20037;-75
2022/11/11 02:59:14;;;;;;;23.13;14.32;;;10.10;99.90;;;;;;5059821;28;20040;-75
2022/11/11 03:01:39;;;;;;;25.55;14.48;;;10.10;99.90;;;;;;5052389;28;20021;-74
2022/11/11 03:04:05;;;;;;;26.70;15.07;;;10.10;99.90;;;;;;5072724;28;20032;-74
2022/11/11 03:06:30;;;;;;;23.90;14.63;;;10.10;99.90;;;;;;5070676;28;20396;-74
2022/11/11 03:08:56;;;;;;;22.08;14.23;;;10.10;99.90;;;;;;5054299;28;20033;-74
2022/11/11 03:11:28;;;;;;;23.58;14.60;;;10.00;99.90;;;;;;5070258;28;20111;-74
2022/11/11 03:13:55;;;;;;;22.87;14.23;;;10.00;99.90;;;;;;5068130;28;20029;-74
2022/11/11 03:19:06;;;;;;;23.73;13.35;;;10.00;99.90;;;;;;5071468;28;20474;-74
2022/11/11 03:21:31;;;;;;;20.85;14.00;;;9.90;99.90;;;;;;5064690;28;20028;-74
2022/11/11 03:23:57;;;;;;;21.95;13.30;;;9.90;99.90;;;;;;5072080;28;20067;-74
2022/11/11 03:26:22;;;;;;;29.85;15.27;;;9.80;99.90;;;;;;5071130;28;20045;-74
2022/11/11 03:28:48;;;;;;;23.13;13.77;;;9.80;99.90;;;;;;5070596;28;20031;-74
2022/11/11 03:31:14;;;;;;;25.95;14.65;;;9.80;99.90;;;;;;5067401;28;20112;-74
2022/11/11 03:33:40;;;;;;;25.25;13.98;;;9.80;99.90;;;;;;5072470;28;22428;-75
2022/11/11 03:36:05;;;;;;;24.40;14.25;;;9.90;99.90;;;;;;5071578;28;20047;-74
2022/11/11 03:38:31;;;;;;;21.80;13.73;;;9.90;99.90;;;;;;5070672;28;20023;-74
2022/11/11 03:40:57;;;;;;;23.70;12.63;;;9.90;99.90;;;;;;5068304;28;20028;-74
2022/11/11 03:43:25;;;;;;;25.00;14.35;;;10.00;99.90;;;;;;5047197;28;20021;-74
2022/11/11 03:45:52;;;;;;;28.40;13.23;;;9.90;99.90;;;;;;5064743;28;20028;-74
2022/11/11 03:48:18;;;;;;;25.23;14.75;;;10.00;99.90;;;;;;5069859;28;20059;-74
2022/11/11 03:50:49;;;;;;;22.02;13.18;;;9.90;99.90;;;;;;5068194;28;20060;-74
2022/11/11 03:53:16;;;;;;;23.73;14.55;;;9.90;99.90;;;;;;5065943;28;20427;-74
2022/11/11 03:55:42;;;;;;;23.15;13.55;;;9.90;99.90;;;;;;5058081;28;20052;-74
2022/11/11 03:58:08;;;;;;;27.63;14.70;;;9.90;99.90;;;;;;5067748;28;20379;-75
2022/11/11 04:00:34;;;;;;;23.73;13.32;;;9.90;99.90;;;;;;5050589;28;20035;-74
2022/11/11 04:11:18;;;;;;;24.95;13.60;;;9.90;99.90;;;;;;5067403;28;20729;-74
2022/11/11 04:16:31;;;;;;;24.98;12.63;;;9.90;99.90;;;;;;5071731;28;20051;-74
2022/11/11 04:21:43;;;;;;;23.90;12.98;;;9.80;99.90;;;;;;5068683;28;20138;-74
2022/11/11 04:27:01;;;;;;;25.65;13.30;;;9.80;99.90;;;;;;5072068;28;20043;-74
2022/11/11 04:29:27;;;;;;;20.58;11.95;;;9.80;99.90;;;;;;5050179;28;20025;-74
2022/11/11 04:34:43;;;;;;;21.20;12.63;;;9.80;99.90;;;;;;5065165;28;20052;-74
2022/11/11 04:37:09;;;;;;;18.75;12.45;;;9.80;99.90;;;;;;5053353;28;20025;-74
2022/11/11 04:42:19;;;;;;;20.33;12.38;;;9.80;99.90;;;;;;5071363;28;20028;-74
2022/11/11 04:47:28;;;;;;;20.42;11.75;;;9.80;99.90;;;;;;5069088;28;20031;-74
2022/11/11 04:49:54;;;;;;;24.42;11.93;;;9.80;99.90;;;;;;5068834;28;20111;-74
2022/11/11 04:52:25;;;;;;;21.42;11.77;;;9.80;99.90;;;;;;5069824;28;20033;-74
2022/11/11 04:57:47;;;;;;;24.35;12.32;;;9.80;99.90;;;;;;5070611;28;20546;-75
2022/11/11 05:00:17;;;;;;;22.52;13.88;;;9.70;99.90;;;;;;5069816;28;20025;-75
2022/11/11 05:08:54;;;;;;;23.02;11.43;;;9.80;99.90;;;;;;5071861;28;20038;-75
2022/11/11 05:10:59;;;;;;;19.58;11.10;;;9.80;99.90;;;;;;5056236;28;20130;-75
2022/11/11 05:22:27;;;;;;;21.85;11.65;;;9.70;99.90;;;;;;5046058;28;20056;-75
2022/11/11 05:27:37;;;;;;;24.92;12.35;;;9.60;99.90;;;;;;5067309;28;20077;-75
2022/11/11 05:30:05;;;;;;;23.75;12.57;;;9.60;99.90;;;;;;5073189;28;20418;-75
2022/11/11 05:32:30;;;;;;;26.90;12.60;;;9.60;99.90;;;;;;5070292;28;20032;-75
2022/11/11 05:34:56;;;;;;;22.75;12.55;;;9.60;99.90;;;;;;5074819;28;20378;-75
2022/11/11 05:37:22;;;;;;;21.10;12.35;;;9.60;99.90;;;;;;5066142;28;20024;-75
2022/11/11 05:39:48;;;;;;;25.38;12.18;;;9.60;99.90;;;;;;5059611;28;20361;-74
2022/11/11 05:42:13;;;;;;;22.50;13.07;;;9.60;99.90;;;;;;5054287;28;20179;-75
2022/11/11 05:44:39;;;;;;;25.42;13.18;;;9.60;99.90;;;;;;5070049;28;20082;-75
2022/11/11 05:47:05;;;;;;;17.75;10.90;;;9.60;99.90;;;;;;5070880;28;20503;-75
2022/11/11 05:49:31;;;;;;;22.77;12.93;;;9.60;99.90;;;;;;5052474;28;20043;-75
2022/11/11 05:51:56;;;;;;;24.00;12.27;;;9.60;99.90;;;;;;5064058;28;20043;-75
2022/11/11 05:54:22;;;;;;;22.50;12.63;;;9.60;99.90;;;;;;5068666;28;20040;-76
2022/11/11 05:56:48;;;;;;;27.27;14.02;;;9.50;99.90;;;;;;5051672;28;20041;-75
2022/11/11 05:59:14;;;;;;;21.50;11.95;;;9.60;99.90;;;;;;5073838;28;20031;-76
2022/11/11 06:01:41;;;;;;;19.88;12.52;;;9.50;99.90;;;;;;5066017;28;20024;-76
2022/11/11 06:04:06;;;;;;;29.27;13.18;;;9.50;99.90;;;;;;5057682;28;20116;-76
2022/11/11 06:06:34;;;;;;;22.17;12.82;;;9.50;99.90;;;;;;5038626;28;20527;-76
2022/11/11 06:09:00;;;;;;;24.38;13.63;;;9.50;99.90;;;;;;5064051;28;20025;-74
2022/11/11 06:11:29;;;;;;;27.20;13.00;;;9.40;99.90;;;;;;5060622;28;20117;-75
2022/11/11 06:13:55;;;;;;;22.85;11.82;;;9.40;99.90;;;;;;5073502;28;20047;-74
2022/11/11 06:16:21;;;;;;;21.00;13.00;;;9.40;99.90;;;;;;5071517;28;20029;-74
2022/11/11 06:18:47;;;;;;;26.00;12.90;;;9.30;99.90;;;;;;5060614;28;20495;-74
2022/11/11 06:21:12;;;;;;;21.48;13.23;;;9.30;99.90;;;;;;5074387;28;20028;-74
2022/11/11 06:23:38;;;;;;;20.48;12.82;;;9.20;99.90;;;;;;5054242;28;20028;-74
2022/11/11 06:26:14;;;;;;;22.90;13.43;;;9.20;99.90;;;;;;5054717;28;20029;-75
2022/11/11 06:28:53;;;;;;;24.20;13.52;;;9.20;99.90;;;;;;5070713;28;20107;-74
2022/11/11 06:31:24;;;;;;;21.05;12.50;;;9.20;99.90;;;;;;5068453;28;20421;-74
2022/11/11 06:33:50;;;;;;;19.45;11.77;;;9.20;99.90;;;;;;5069240;28;20035;-74
2022/11/11 06:36:18;;;;;;;25.92;13.40;;;9.20;99.90;;;;;;5054520;28;20069;-74
2022/11/11 06:38:44;;;;;;;23.52;13.07;;;9.10;99.90;;;;;;5071622;28;20086;-74
2022/11/11 06:41:14;;;;;;;21.67;12.57;;;9.20;99.90;;;;;;5063743;28;20416;-74
2022/11/11 06:43:40;;;;;;;24.52;13.40;;;9.10;99.90;;;;;;5069763;28;20035;-73
2022/11/11 06:46:06;;;;;;;26.30;12.88;;;9.10;99.90;;;;;;5069605;28;20387;-74
2022/11/11 06:48:31;;;;;;;23.42;12.07;;;9.00;99.90;;;;;;5071445;28;20091;-76
2022/11/11 06:51:03;;;;;;;16.20;10.68;;;9.00;99.90;;;;;;5068298;28;20124;-74
2022/11/11 06:53:29;;;;;;;20.90;11.95;;;8.90;99.90;;;;;;5051870;28;20058;-75
2022/11/11 06:55:56;;;;;;;20.65;12.70;;;8.90;99.90;;;;;;5068157;28;20412;-75
2022/11/11 06:58:21;;;;;;;23.70;13.88;;;8.80;99.90;;;;;;5070478;28;20545;-75
2022/11/11 07:00:48;;;;;;;24.85;13.65;;;8.70;99.90;;;;;;5067936;28;20028;-75
2022/11/11 07:03:16;;;;;;;21.63;14.38;;;8.70;99.90;;;;;;5052927;28;20037;-75
2022/11/11 07:05:42;;;;;;;25.52;13.73;;;8.60;99.90;;;;;;5069633;28;20104;-74
2022/11/11 07:08:11;;;;;;;29.27;15.32;;;8.50;99.90;;;;;;5070581;28;20029;-75
2022/11/11 07:10:38;;;;;;;24.63;14.77;;;8.50;99.90;;;;;;5043045;28;20115;-75
2022/11/11 07:13:08;;;;;;;24.60;14.15;;;8.50;99.90;;;;;;5046173;28;20039;-75
2022/11/11 07:15:34;;;;;;;28.67;15.00;;;8.50;99.90;;;;;;5060479;28;20064;-75
2022/11/11 07:18:01;;;;;;;25.00;14.52;;;8.60;99.90;;;;;;5053452;28;20036;-75
2022/11/11 07:20:26;;;;;;;25.30;14.77;;;8.60;99.90;;;;;;5069187;28;20028;-75
2022/11/11 07:22:52;;;;;;;29.75;16.02;;;8.60;99.90;;;;;;5071444;28;20116;-75
2022/11/11 07:25:18;;;;;;;29.48;16.45;;;8.60;99.90;;;;;;5069903;28;20032;-75
2022/11/11 07:27:43;;;;;;;26.63;15.70;;;8.60;99.90;;;;;;5067381;28;20056;-75
2022/11/11 07:30:10;;;;;;;28.10;17.10;;;8.60;99.90;;;;;;5022487;28;20131;-75
2022/11/11 07:32:36;;;;;;;30.50;16.65;;;8.70;99.90;;;;;;5069380;28;20020;-75
2022/11/11 07:35:03;;;;;;;26.30;15.60;;;8.60;99.90;;;;;;5067837;28;20037;-75
2022/11/11 07:37:30;;;;;;;26.45;15.93;;;8.70;99.90;;;;;;5070061;28;20021;-75
2022/11/11 07:39:56;;;;;;;27.40;16.20;;;8.70;99.90;;;;;;5070053;28;20078;-75
2022/11/11 07:42:21;;;;;;;29.20;16.92;;;8.70;99.90;;;;;;5036391;28;20025;-75
2022/11/11 07:44:47;;;;;;;30.85;17.27;;;8.70;99.90;;;;;;5066965;28;20112;-75
2022/11/11 07:47:12;;;;;;;28.08;16.92;;;8.70;99.90;;;;;;5066691;28;20033;-75
2022/11/11 07:49:38;;;;;;;27.08;16.67;;;8.70;99.90;;;;;;5063646;28;20058;-75
2022/11/11 07:52:04;;;;;;;28.95;16.40;;;8.70;99.90;;;;;;5051105;28;20023;-75
2022/11/11 07:54:30;;;;;;;27.25;16.50;;;8.70;99.90;;;;;;5066190;28;20040;-75
2022/11/11 07:56:56;;;;;;;30.55;16.63;;;8.70;99.90;;;;;;5071303;28;20495;-75
2022/11/11 07:59:22;;;;;;;27.90;15.35;;;8.70;99.90;;;;;;5070519;28;20115;-75
2022/11/11 08:01:48;;;;;;;27.63;16.48;;;8.60;99.90;;;;;;5048921;28;20021;-75
2022/11/11 08:04:13;;;;;;;27.90;15.70;;;8.60;99.90;;;;;;5049181;28;20059;-75
2022/11/11 08:06:39;;;;;;;28.50;15.43;;;8.60;99.90;;;;;;5064642;28;20021;-75
2022/11/11 08:09:05;;;;;;;24.70;14.50;;;8.60;99.90;;;;;;5067601;28;20029;-75
2022/11/11 08:14:15;;;;;;;30.80;16.92;;;8.50;99.90;;;;;;5067471;28;20043;-75
2022/11/11 08:16:40;;;;;;;27.55;16.23;;;8.50;99.90;;;;;;5071760;28;20388;-75
2022/11/11 08:19:06;;;;;;;28.95;15.65;;;8.50;99.90;;;;;;5070808;28;20435;-75
2022/11/11 08:21:31;;;;;;;29.35;15.80;;;8.40;99.90;;;;;;5063374;28;20174;-75
2022/11/11 08:23:57;;;;;;;26.80;15.57;;;8.40;99.90;;;;;;5051272;28;20060;-74
2022/11/11 08:26:23;;;;;;;26.83;15.52;;;8.40;99.90;;;;;;5045249;28;20464;-75
2022/11/11 08:28:51;;;;;;;27.98;15.07;;;8.40;99.90;;;;;;5069566;28;20048;-75
2022/11/11 08:31:18;;;;;;;25.85;15.98;;;8.40;99.90;;;;;;5048361;28;20040;-75
2022/11/11 08:33:43;;;;;;;27.88;15.70;;;8.40;99.90;;;;;;5074064;28;20020;-75
2022/11/11 08:36:10;;;;;;;27.63;16.15;;;8.40;99.90;;;;;;5053116;28;20033;-75
2022/11/11 08:38:36;;;;;;;26.90;16.25;;;8.50;99.90;;;;;;5070755;28;20028;-76
2022/11/11 08:41:03;;;;;;;27.30;15.05;;;8.50;99.90;;;;;;5052562;28;20032;-77
2022/11/11 08:43:31;;;;;;;23.67;13.45;;;8.50;99.90;;;;;;5068021;28;20021;-75
2022/11/11 08:45:58;;;;;;;27.13;15.40;;;8.50;99.90;;;;;;5053567;28;20024;-76
2022/11/11 08:48:24;;;;;;;25.45;14.07;;;8.50;99.90;;;;;;5067171;28;20017;-76
2022/11/11 08:50:51;;;;;;;26.50;15.73;;;8.50;99.90;;;;;;5067039;28;20921;-76
2022/11/11 08:53:17;;;;;;;26.75;14.57;;;8.50;99.90;;;;;;5066785;28;20031;-76
2022/11/11 08:55:43;;;;;;;27.77;14.43;;;8.50;99.90;;;;;;5062916;28;20045;-76
2022/11/11 08:58:10;;;;;;;26.15;13.73;;;8.50;99.90;;;;;;5071849;28;20446;-76
2022/11/11 09:00:36;;;;;;;24.25;14.38;;;8.60;99.90;;;;;;5070879;28;20051;-75
2022/11/11 09:03:04;;;;;;;28.65;14.95;;;8.70;99.90;;;;;;5061216;28;20025;-76
2022/11/11 09:05:30;;;;;;;26.40;14.35;;;8.70;99.90;;;;;;5069412;28;20024;-76
2022/11/11 09:07:59;;;;;;;25.38;14.05;;;8.80;99.90;;;;;;5071143;28;20028;-76
2022/11/11 09:10:25;;;;;;;25.10;14.65;;;8.80;99.90;;;;;;5064482;28;20036;-76
2022/11/11 09:12:55;;;;;;;26.63;13.93;;;8.90;99.90;;;;;;5091544;28;20036;-76
2022/11/11 09:15:21;;;;;;;25.63;14.63;;;8.90;99.90;;;;;;5098790;28;20036;-76
2022/11/11 09:17:47;;;;;;;25.58;14.18;;;9.00;99.90;;;;;;5097289;28;20132;-76
2022/11/11 09:20:12;;;;;;;23.42;14.30;;;9.00;99.90;;;;;;5072987;28;20396;-76
2022/11/11 09:22:42;;;;;;;27.33;13.85;;;9.10;99.90;;;;;;5077745;28;20574;-76
2022/11/11 09:25:08;;;;;;;23.23;14.05;;;9.20;99.90;;;;;;5077433;28;20111;-76
2022/11/11 09:27:34;;;;;;;24.33;13.52;;;9.20;99.90;;;;;;5075366;28;20028;-76
2022/11/11 09:30:00;;;;;;;22.15;13.68;;;9.30;99.90;;;;;;5073005;28;20202;-76
2022/11/11 09:32:25;;;;;;;24.15;12.63;;;9.30;99.90;;;;;;5075997;28;20511;-76
2022/11/11 09:34:51;;;;;;;23.58;14.38;;;9.40;99.90;;;;;;5069703;28;20101;-76
2022/11/11 09:37:16;;;;;;;22.10;13.55;;;9.50;99.90;;;;;;5074838;28;20035;-76
2022/11/11 09:39:42;;;;;;;22.25;12.82;;;9.50;99.90;;;;;;5074946;28;20055;-76
2022/11/11 09:42:16;;;;;;;24.90;12.85;;;9.50;99.90;;;;;;5075754;28;20028;-76
2022/11/11 09:45:07;;;;;;;22.20;12.52;;;9.60;99.90;;;;;;5072652;28;20021;-76
2022/11/11 09:47:52;;;;;;;22.05;12.40;;;9.60;99.90;;;;;;5074764;28;20032;-76
2022/11/11 09:50:27;;;;;;;18.02;11.02;;;9.70;99.90;;;;;;5079858;28;20031;-76
2022/11/11 09:53:00;;;;;;;21.48;12.88;;;9.80;99.90;;;;;;5069932;28;20093;-76
2022/11/11 09:55:43;;;;;;;19.25;11.25;;;9.80;99.90;;;;;;5060973;28;20094;-76
2022/11/11 09:58:25;;;;;;;26.45;12.65;;;9.90;99.90;;;;;;5051886;28;20036;-76
2022/11/11 10:01:15;;;;;;;19.92;11.68;;;10.00;99.90;;;;;;5064867;28;20616;-77
2022/11/11 10:03:54;;;;;;;18.67;11.13;;;10.00;99.90;;;;;;5071357;28;20044;-75
2022/11/11 10:06:25;;;;;;;21.52;11.30;;;10.10;99.90;;;;;;5075832;28;20090;-75
2022/11/11 10:09:02;;;;;;;18.33;11.75;;;10.20;99.90;;;;;;5073180;28;20028;-75
2022/11/11 10:11:51;;;;;;;17.60;10.45;;;10.20;99.90;;;;;;5073406;28;20029;-75
2022/11/11 10:14:17;;;;;;;16.08;9.82;;;10.30;99.90;;;;;;5069693;28;20570;-76
2022/11/11 10:17:06;;;;;;;20.08;10.07;;;10.30;99.90;;;;;;5053688;28;20029;-76
2022/11/11 10:19:56;;;;;;;18.20;10.82;;;10.40;99.90;;;;;;5067895;28;20067;-77
2022/11/11 10:22:26;;;;;;;16.15;9.95;;;10.40;99.90;;;;;;5072982;28;20083;-76
2022/11/11 10:25:12;;;;;;;18.65;10.48;;;10.50;99.90;;;;;;5055785;28;20161;-76
2022/11/11 10:27:44;;;;;;;14.95;8.90;;;10.60;99.90;;;;;;5048159;28;20058;-76
2022/11/11 10:30:18;;;;;;;16.80;9.68;;;10.70;99.90;;;;;;5073790;28;20032;-76
2022/11/11 10:32:52;;;;;;;17.42;10.65;;;10.70;99.90;;;;;;5071763;28;20067;-76
2022/11/11 10:35:23;;;;;;;15.43;8.50;;;10.80;99.90;;;;;;5050891;28;20140;-76
2022/11/11 10:38:00;;;;;;;14.45;8.85;;;10.90;99.90;;;;;;5054439;28;20104;-76
2022/11/11 10:40:38;;;;;;;12.88;8.30;;;10.90;99.90;;;;;;5059131;28;20036;-74
2022/11/11 10:43:03;;;;;;;11.50;7.32;;;11.00;99.90;;;;;;5054744;28;20423;-75
2022/11/11 10:45:46;;;;;;;10.48;7.78;;;11.00;99.90;;;;;;5050782;28;20082;-75
2022/11/11 10:48:22;;;;;;;12.38;7.47;;;11.00;99.90;;;;;;5070321;28;20032;-75
2022/11/11 10:50:54;;;;;;;12.90;7.50;;;11.10;99.90;;;;;;5073496;28;20067;-75
2022/11/11 10:53:25;;;;;;;13.57;7.53;;;11.10;99.90;;;;;;5053725;28;20536;-75
2022/11/11 10:56:25;;;;;;;13.57;7.30;;;11.10;99.90;;;;;;5071501;28;20040;-76
2022/11/11 10:59:01;;;;;;;11.45;6.68;;;11.10;99.90;;;;;;5073297;28;20063;-75
2022/11/11 11:01:36;;;;;;;11.20;7.18;;;11.10;99.90;;;;;;5072490;28;20093;-76
2022/11/11 11:04:16;;;;;;;12.55;8.35;;;11.10;99.90;;;;;;5068392;28;20033;-76
2022/11/11 11:06:45;;;;;;;13.18;7.07;;;11.10;99.90;;;;;;5073549;28;20021;-75
2022/11/11 11:09:34;;;;;;;11.73;7.80;;;11.10;99.90;;;;;;5070645;28;20048;-74
2022/11/11 11:12:24;;;;;;;12.65;6.90;;;11.10;99.90;;;;;;5065105;28;20021;-74
2022/11/11 11:14:55;;;;;;;12.18;7.47;;;11.10;99.90;;;;;;5046012;28;20033;-75
2022/11/11 11:17:35;;;;;;;9.50;6.20;;;11.10;99.90;;;;;;5067041;28;20027;-75
2022/11/11 11:20:11;;;;;;;12.35;6.75;;;11.20;99.90;;;;;;5054256;28;20028;-75
2022/11/11 11:22:50;;;;;;;12.02;7.07;;;11.20;99.90;;;;;;5054605;28;20033;-75
2022/11/11 11:25:17;;;;;;;11.57;7.28;;;11.20;99.90;;;;;;5072591;28;20020;-75
2022/11/11 11:27:43;;;;;;;10.63;7.13;;;11.20;99.90;;;;;;5067412;28;20031;-75
2022/11/11 11:30:30;;;;;;;9.75;6.10;;;11.30;99.90;;;;;;5049988;28;20028;-75
2022/11/11 11:33:00;;;;;;;11.07;6.45;;;11.30;99.90;;;;;;5072269;28;20029;-75
2022/11/11 11:35:38;;;;;;;10.68;6.90;;;11.30;99.90;;;;;;5072585;28;20040;-75
2022/11/11 11:38:06;;;;;;;9.80;6.30;;;11.30;99.90;;;;;;5052882;28;20033;-75
2022/11/11 11:40:55;;;;;;;11.50;5.95;;;11.30;99.90;;;;;;5052325;28;20025;-75
2022/11/11 11:43:38;;;;;;;13.98;6.40;;;11.30;99.90;;;;;;5042605;28;20036;-75
2022/11/11 11:46:26;;;;;;;10.75;6.25;;;11.40;99.90;;;;;;5066812;28;20036;-76
2022/11/11 11:49:06;;;;;;;10.07;6.40;;;11.40;99.90;;;;;;5072684;28;20081;-76
2022/11/11 11:51:42;;;;;;;8.90;5.85;;;11.40;99.90;;;;;;5068475;28;20024;-76
2022/11/11 11:54:36;;;;;;;11.18;5.93;;;11.50;99.90;;;;;;5052274;28;20082;-76
2022/11/11 11:57:12;;;;;;;9.60;6.25;;;11.50;99.90;;;;;;5071449;28;20033;-76
2022/11/11 12:00:05;;;;;;;9.40;5.50;;;11.60;99.90;;;;;;5044696;28;20108;-75
2022/11/11 12:02:43;;;;;;;9.93;5.57;;;11.70;99.90;;;;;;5058370;28;20035;-75
2022/11/11 12:05:44;;;;;;;9.57;5.43;;;11.80;99.90;;;;;;5038748;28;20020;-76
2022/11/11 12:08:26;;;;;;;9.88;4.80;;;11.90;99.90;;;;;;5048399;28;20037;-75
2022/11/11 12:11:05;;;;;;;8.15;4.70;;;11.80;99.90;;;;;;5063542;28;20028;-75
2022/11/11 12:13:58;;;;;;;8.05;4.85;;;11.90;99.90;;;;;;5046789;28;20121;-75
2022/11/11 12:16:28;;;;;;;8.85;4.70;;;12.00;99.90;;;;;;5069759;28;20040;-75
2022/11/11 12:19:18;;;;;;;7.53;4.72;;;12.00;99.90;;;;;;5072368;28;20028;-75
2022/11/11 12:22:04;;;;;;;6.82;3.95;;;12.10;99.90;;;;;;5072193;28;20021;-75
2022/11/11 12:24:39;;;;;;;6.68;3.80;;;12.10;99.90;;;;;;5070910;28;20484;-75
2022/11/11 12:27:19;;;;;;;9.05;4.50;;;12.20;99.90;;;;;;5069638;28;20033;-75
2022/11/11 12:30:04;;;;;;;7.95;3.95;;;12.40;99.90;;;;;;5053950;28;20048;-75
2022/11/11 12:32:54;;;;;;;7.70;3.72;;;12.40;99.90;;;;;;5053719;28;20035;-75
2022/11/11 12:35:24;;;;;;;6.65;3.00;;;12.50;99.90;;;;;;5072662;28;20044;-75
2022/11/11 12:38:12;;;;;;;5.75;3.20;;;12.60;99.90;;;;;;5058050;28;20447;-75
2022/11/11 12:41:02;;;;;;;7.18;2.95;;;12.70;99.90;;;;;;5074936;28;20496;-75
2022/11/11 12:43:44;;;;;;;5.53;2.33;;;12.70;99.90;;;;;;5043600;28;20032;-75
2022/11/11 12:46:18;;;;;;;6.28;2.97;;;12.80;99.90;;;;;;5068937;28;20034;-75
2022/11/11 12:49:02;;;;;;;5.07;2.22;;;12.80;99.90;;;;;;5076334;28;20103;-75
2022/11/11 12:51:49;;;;;;;5.20;3.05;;;12.90;99.90;;;;;;5060429;28;20028;-75
2022/11/11 12:54:42;;;;;;;5.65;2.38;;;12.90;99.90;;;;;;5066735;28;20032;-74
2022/11/11 12:57:33;;;;;;;9.38;2.50;;;13.00;99.90;;;;;;5055948;28;20392;-75
2022/11/11 13:00:28;;;;;;;4.63;2.13;;;13.10;99.90;;;;;;5068755;28;20020;-75
2022/11/11 13:03:16;;;;;;;4.35;1.73;;;13.10;99.90;;;;;;5058299;28;20039;-75
2022/11/11 13:06:06;;;;;;;5.95;1.98;;;13.20;99.90;;;;;;5069433;28;20024;-75
2022/11/11 13:08:59;;;;;;;4.55;1.63;;;13.20;99.90;;;;;;5057155;28;20044;-75
2022/11/11 13:11:52;;;;;;;3.58;1.50;;;13.10;99.90;;;;;;5071835;28;20025;-75
2022/11/11 13:14:42;;;;;;;4.93;1.27;;;13.10;99.90;;;;;;5052235;28;20039;-75
2022/11/11 13:17:13;;;;;;;4.80;1.58;;;13.10;99.90;;;;;;5072275;28;20373;-75
2022/11/11 13:19:54;;;;;;;2.22;1.13;;;13.10;99.90;;;;;;5063487;28;20057;-75
2022/11/11 13:22:24;;;;;;;3.42;1.40;;;13.20;99.90;;;;;;5048556;28;20025;-75
2022/11/11 13:24:51;;;;;;;4.65;1.67;;;13.10;99.90;;;;;;5068700;28;20032;-75
2022/11/11 13:27:23;;;;;;;4.65;1.02;;;13.20;99.90;;;;;;5070418;28;20029;-75
2022/11/11 13:30:11;;;;;;;40.15;9.98;;;13.20;99.90;;;;;;5073385;28;20016;-75
2022/11/11 13:32:47;;;;;;;12.73;4.10;;;13.30;99.90;;;;;;5073694;28;20029;-75
2022/11/11 13:35:37;;;;;;;5.38;2.03;;;13.40;99.90;;;;;;5056974;28;20068;-75
2022/11/11 13:38:03;;;;;;;5.55;1.60;;;13.60;99.90;;;;;;5074642;28;20032;-76
2022/11/11 13:40:42;;;;;;;2.70;1.17;;;13.70;99.90;;;;;;5065931;28;20686;-75
2022/11/11 13:43:18;;;;;;;4.28;1.20;;;13.80;99.90;;;;;;5061474;28;20142;-77
2022/11/11 13:45:51;;;;;;;2.92;0.93;;;13.90;99.90;;;;;;5063727;28;20032;-76
2022/11/11 13:48:45;;;;;;;4.13;0.80;;;13.90;99.90;;;;;;5047953;28;20376;-76
2022/11/11 13:51:21;;;;;;;3.50;0.95;;;13.90;99.90;;;;;;5072563;28;20032;-76
2022/11/11 13:53:48;;;;;;;3.88;1.17;;;14.00;99.90;;;;;;5069047;28;20491;-76
2022/11/11 13:56:36;;;;;;;3.78;0.73;;;14.00;99.90;;;;;;5072009;28;20045;-75
2022/11/11 13:59:02;;;;;;;3.10;0.85;;;13.90;99.90;;;;;;5057532;28;20103;-76
2022/11/11 14:01:39;;;;;;;3.38;0.95;;;13.80;99.90;;;;;;5067353;28;20108;-75
2022/11/11 14:04:09;;;;;;;2.80;0.80;;;13.80;99.90;;;;;;5071910;28;20473;-76
2022/11/11 14:06:47;;;;;;;3.13;0.80;;;13.70;99.90;;;;;;5072363;28;20095;-76
2022/11/11 14:09:52;;;;;;;2.30;0.80;;;13.60;99.90;;;;;;5070109;28;20164;-78
2022/11/11 14:12:32;;;;;;;3.63;1.00;;;13.60;99.90;;;;;;5067933;28;20024;-76
2022/11/11 14:14:58;;;;;;;2.72;0.82;;;13.60;99.90;;;;;;5073996;28;20067;-76
2022/11/11 14:17:25;;;;;;;6.18;1.08;;;13.50;99.90;;;;;;5069886;28;20057;-75